Time;durP1;ratioP1;P1;durP2;ratioP2;P2;SDS_P1;SDS_P2;PMS_P1;PMS_P2;Temp;Humidity;BMP_temperature;BMP_pressure;BME280_temperature;BME280_humidity;BME280_pressure;Samples;Min_cycle;Max_cycle;Signal;HPM_P1;HPM_P2
2023/05/28 00:00:26;;;;;;;5.97;4.85;;;;;;;16.53;88.62;94941.41;5051608;28;20222;-66
2023/05/28 00:02:53;;;;;;;5.55;5.25;;;;;;;16.50;88.82;94940.75;5054019;28;20201;-65
2023/05/28 00:05:19;;;;;;;7.10;5.68;;;;;;;16.53;88.19;94943.97;5053184;28;20300;-60
2023/05/28 00:07:46;;;;;;;5.50;5.00;;;;;;;16.53;87.93;94943.97;5051041;28;20363;-63
2023/05/28 00:10:13;;;;;;;6.13;5.63;;;;;;;16.46;88.09;94952.09;5053459;28;20289;-61
2023/05/28 00:12:41;;;;;;;5.53;4.97;;;;;;;16.40;88.40;94947.31;5052139;28;20594;-63
2023/05/28 00:15:08;;;;;;;5.40;4.72;;;;;;;16.39;88.48;94949.06;5052008;28;20651;-65
2023/05/28 00:17:35;;;;;;;5.50;5.03;;;;;;;16.39;88.42;94943.09;5053798;28;20289;-65
2023/05/28 00:20:01;;;;;;;5.05;4.57;;;;;;;16.39;88.46;94950.78;5051868;28;20308;-66
2023/05/28 00:22:28;;;;;;;4.80;4.50;;;;;;;16.40;88.10;94942.19;5052210;28;20241;-63
2023/05/28 00:24:55;;;;;;;5.07;4.68;;;;;;;16.38;88.01;94949.16;5051589;28;20293;-62
2023/05/28 00:27:21;;;;;;;5.90;5.43;;;;;;;16.41;87.65;94938.72;5052533;28;20298;-63
2023/05/28 00:29:49;;;;;;;5.07;4.72;;;;;;;16.41;87.02;94933.59;5053484;28;20317;-61
2023/05/28 00:32:16;;;;;;;6.78;4.63;;;;;;;16.35;87.49;94934.75;5052116;28;20986;-66
2023/05/28 00:34:43;;;;;;;6.20;5.03;;;;;;;16.32;87.58;94935.78;5051295;28;20229;-66
2023/05/28 00:37:09;;;;;;;7.50;4.78;;;;;;;16.34;86.88;94928.81;5053734;28;20293;-66
2023/05/28 00:39:36;;;;;;;5.78;5.03;;;;;;;16.39;86.82;94925.16;5051788;28;20304;-63
2023/05/28 00:42:04;;;;;;;6.75;5.00;;;;;;;16.35;86.81;94924.50;5054209;28;20757;-64
2023/05/28 00:44:32;;;;;;;5.65;5.25;;;;;;;16.38;87.40;94932.00;5053214;28;20213;-64
2023/05/28 00:47:00;;;;;;;5.18;4.68;;;;;;;16.32;87.57;94919.56;5052804;28;20209;-62
2023/05/28 00:49:28;;;;;;;5.70;5.20;;;;;;;16.34;87.00;94913.41;5053634;28;20210;-67
2023/05/28 00:51:55;;;;;;;5.75;4.55;;;;;;;16.37;86.55;94916.72;5051929;28;20404;-68
2023/05/28 00:54:23;;;;;;;5.93;5.53;;;;;;;16.28;87.08;94921.50;5052141;28;20848;-64
2023/05/28 00:56:51;;;;;;;5.38;4.90;;;;;;;16.21;87.58;94925.31;5054412;28;20678;-67
2023/05/28 00:59:18;;;;;;;5.30;4.85;;;;;;;16.10;88.10;94925.09;5052716;28;20229;-65
2023/05/28 01:01:44;;;;;;;6.25;5.75;;;;;;;16.13;87.57;94929.22;5053327;28;20333;-66
2023/05/28 01:04:12;;;;;;;6.05;5.65;;;;;;;16.14;87.88;94924.00;5052824;28;20297;-64
2023/05/28 01:06:39;;;;;;;5.55;5.13;;;;;;;16.15;88.04;94923.09;5051157;28;20305;-68
2023/05/28 01:09:07;;;;;;;5.60;5.20;;;;;;;15.86;88.81;94911.94;5057020;28;20669;-62
2023/05/28 01:11:36;;;;;;;5.00;4.70;;;;;;;15.95;89.01;94915.72;5054911;28;20677;-63
2023/05/28 01:14:05;;;;;;;5.75;5.25;;;;;;;15.88;89.18;94920.38;5056110;28;20209;-65
2023/05/28 01:16:32;;;;;;;5.90;5.50;;;;;;;15.74;89.51;94906.69;5058173;28;20600;-64
2023/05/28 01:18:59;;;;;;;6.35;5.78;;;;;;;15.83;89.64;94911.31;5056414;28;20230;-64
2023/05/28 01:21:28;;;;;;;7.20;5.57;;;;;;;15.97;88.36;94907.03;5052891;28;20297;-59
2023/05/28 01:23:58;;;;;;;4.65;4.35;;;;;;;15.91;88.35;94901.44;5055220;28;20233;-65
2023/05/28 01:26:25;;;;;;;5.20;4.90;;;;;;;15.88;88.22;94891.34;5054063;28;20297;-62
2023/05/28 01:28:52;;;;;;;5.28;4.80;;;;;;;15.86;88.25;94898.28;5056684;28;20292;-62
2023/05/28 01:31:19;;;;;;;5.22;4.82;;;;;;;15.84;88.63;94892.44;5054270;28;20289;-62
2023/05/28 01:33:46;;;;;;;5.95;5.25;;;;;;;15.81;89.21;94893.44;5054581;28;20655;-63
2023/05/28 01:36:20;;;;;;;5.05;4.75;;;;;;;15.83;89.06;94891.63;5054267;28;20289;-62
2023/05/28 01:38:48;;;;;;;4.75;4.45;;;;;;;15.83;89.40;94901.06;5056294;28;20295;-63
2023/05/28 01:41:17;;;;;;;5.90;5.40;;;;;;;15.84;89.18;94895.81;5046758;28;21520;-65
2023/05/28 01:43:45;;;;;;;4.88;4.47;;;;;;;15.84;88.24;94897.56;5055205;28;20238;-62
2023/05/28 01:46:13;;;;;;;5.28;4.78;;;;;;;15.82;88.13;94899.41;5054907;28;20206;-63
2023/05/28 01:48:40;;;;;;;5.43;5.03;;;;;;;15.79;88.35;94895.28;5053863;28;21088;-62
2023/05/28 01:51:07;;;;;;;4.15;3.95;;;;;;;15.81;88.43;94895.19;5055849;28;20352;-61
2023/05/28 01:53:34;;;;;;;6.07;4.60;;;;;;;15.82;88.21;94889.16;5055861;28;20210;-62
2023/05/28 01:56:01;;;;;;;4.28;4.00;;;;;;;15.76;88.82;94899.75;5054895;28;20214;-64
2023/05/28 01:58:30;;;;;;;5.80;4.60;;;;;;;15.71;88.92;94887.19;5054506;28;20698;-64
2023/05/28 02:01:10;;;;;;;5.00;4.60;;;;;;;15.71;88.87;94876.09;5052659;28;20229;-63
2023/05/28 02:03:37;;;;;;;8.73;5.03;;;;;;;15.77;89.00;94891.16;5055022;28;20209;-64
2023/05/28 02:06:04;;;;;;;5.00;4.70;;;;;;;15.72;89.13;94898.25;5054355;28;20751;-65
2023/05/28 02:08:30;;;;;;;4.68;4.47;;;;;;;15.70;89.29;94890.66;5055121;28;20828;-66
2023/05/28 02:10:57;;;;;;;5.80;4.95;;;;;;;15.65;89.18;94890.91;5052386;28;20757;-67
2023/05/28 02:13:24;;;;;;;4.43;4.05;;;;;;;15.63;89.52;94892.72;5054307;28;20629;-63
2023/05/28 02:15:52;;;;;;;5.80;5.30;;;;;;;15.63;89.38;94890.16;5054275;28;20312;-64
2023/05/28 02:18:19;;;;;;;4.22;3.83;;;;;;;15.70;88.93;94897.53;5053711;28;20767;-62
2023/05/28 02:20:45;;;;;;;5.35;4.93;;;;;;;15.79;88.39;94899.56;5054310;28;20646;-67
2023/05/28 02:23:12;;;;;;;6.25;4.53;;;;;;;15.80;88.00;94906.34;5054130;28;20301;-65
2023/05/28 02:25:39;;;;;;;4.40;4.10;;;;;;;15.73;88.23;94890.50;5054610;28;20289;-66
2023/05/28 02:28:06;;;;;;;5.95;5.05;;;;;;;15.81;87.78;94908.81;5053640;28;20205;-65
2023/05/28 02:30:32;;;;;;;5.55;5.15;;;;;;;15.86;87.50;94900.84;5056941;28;20745;-66
2023/05/28 02:33:00;;;;;;;6.13;4.22;;;;;;;15.83;87.72;94906.19;5055528;28;20229;-62
2023/05/28 02:35:27;;;;;;;4.32;4.13;;;;;;;15.82;87.49;94907.91;5054978;28;20292;-64
2023/05/28 02:37:53;;;;;;;4.28;3.95;;;;;;;15.77;87.57;94902.22;5053827;28;20279;-63
2023/05/28 02:40:20;;;;;;;6.72;4.63;;;;;;;15.78;87.81;94908.16;5057051;28;20316;-65
2023/05/28 02:42:47;;;;;;;5.07;4.78;;;;;;;15.75;87.55;94898.09;5055539;28;20344;-64
2023/05/28 02:45:14;;;;;;;4.80;4.40;;;;;;;15.73;87.98;94902.47;5055636;28;20285;-63
2023/05/28 02:47:40;;;;;;;4.50;4.20;;;;;;;15.71;88.46;94896.59;5053190;28;20297;-65
2023/05/28 02:50:10;;;;;;;5.55;5.15;;;;;;;15.82;88.38;94897.66;5055389;28;20320;-60
2023/05/28 02:52:36;;;;;;;5.68;5.13;;;;;;;15.87;89.05;94894.81;5056201;28;20204;-64
2023/05/28 02:55:03;;;;;;;4.88;4.40;;;;;;;15.88;89.03;94896.47;5057708;28;20300;-67
2023/05/28 02:57:30;;;;;;;4.35;4.05;;;;;;;15.92;88.36;94897.94;5051940;28;20315;-64
2023/05/28 02:59:56;;;;;;;5.18;4.50;;;;;;;15.88;88.33;94899.03;5053723;28;20894;-65
2023/05/28 03:02:23;;;;;;;4.47;4.18;;;;;;;15.93;88.46;94904.72;5053707;28;20607;-63
2023/05/28 03:04:49;;;;;;;4.85;4.55;;;;;;;15.95;88.62;94898.59;5054658;28;20827;-63
2023/05/28 03:07:17;;;;;;;4.95;4.65;;;;;;;15.95;88.75;94902.91;5051133;28;20325;-61
2023/05/28 03:09:44;;;;;;;5.00;4.70;;;;;;;15.97;88.82;94893.41;5054133;28;20289;-65
2023/05/28 03:12:11;;;;;;;5.18;4.88;;;;;;;16.02;88.00;94896.53;5054430;28;20293;-66
2023/05/28 03:14:37;;;;;;;8.93;4.28;;;;;;;15.99;87.98;94897.53;5054558;28;20809;-66
2023/05/28 03:17:04;;;;;;;6.28;5.20;;;;;;;15.98;88.49;94897.59;5054070;28;20293;-66
2023/05/28 03:19:31;;;;;;;4.88;4.57;;;;;;;16.03;88.40;94902.47;5056339;28;20206;-64
2023/05/28 03:21:58;;;;;;;6.03;5.60;;;;;;;16.18;87.79;94897.28;5054526;28;20607;-65
2023/05/28 03:24:26;;;;;;;6.15;5.68;;;;;;;16.18;87.94;94902.41;5051546;28;20300;-68
2023/05/28 03:26:52;;;;;;;4.65;4.18;;;;;;;16.24;87.42;94902.06;5053441;28;20297;-65
2023/05/28 03:29:19;;;;;;;5.40;5.10;;;;;;;16.22;86.83;94900.50;5054934;28;20291;-65
2023/05/28 03:31:47;;;;;;;4.93;4.65;;;;;;;16.21;87.48;94889.41;5054426;28;20202;-66
2023/05/28 03:34:14;;;;;;;4.65;4.28;;;;;;;16.43;86.66;94906.09;5052752;28;20305;-62
2023/05/28 03:36:41;;;;;;;5.70;5.30;;;;;;;16.37;87.19;94906.47;5053723;28;20213;-64
2023/05/28 03:39:09;;;;;;;4.88;4.35;;;;;;;16.06;88.74;94887.75;5056498;28;20209;-63
2023/05/28 03:41:37;;;;;;;5.38;4.93;;;;;;;16.19;88.78;94908.38;5057010;28;20227;-62
2023/05/28 03:44:05;;;;;;;7.13;5.20;;;;;;;16.24;87.92;94902.06;5055276;28;20226;-65
2023/05/28 03:46:31;;;;;;;6.25;5.28;;;;;;;16.17;88.17;94900.75;5052805;28;20638;-63
2023/05/28 03:48:58;;;;;;;4.93;4.53;;;;;;;16.16;88.36;94896.53;5054605;28;20289;-62
2023/05/28 03:51:26;;;;;;;5.13;4.72;;;;;;;16.37;88.68;94899.59;5053011;28;20271;-61
2023/05/28 03:53:52;;;;;;;4.55;4.35;;;;;;;16.22;88.89;94896.19;5054925;28;20634;-64
2023/05/28 03:56:20;;;;;;;6.05;4.38;;;;;;;16.16;89.84;94901.66;5053831;28;20672;-64
2023/05/28 03:58:48;;;;;;;5.28;4.88;;;;;;;16.09;89.89;94909.78;5053683;28;20635;-63
2023/05/28 04:01:15;;;;;;;5.32;4.93;;;;;;;16.12;89.21;94905.31;5052920;28;20349;-65
2023/05/28 04:03:41;;;;;;;6.95;5.47;;;;;;;16.17;88.98;94905.88;5056716;28;20202;-64
2023/05/28 04:06:08;;;;;;;5.43;5.03;;;;;;;16.14;89.67;94908.63;5052650;28;20292;-65
2023/05/28 04:08:35;;;;;;;5.70;5.28;;;;;;;16.26;89.38;94905.38;5053229;28;20313;-63
2023/05/28 04:11:01;;;;;;;5.05;4.60;;;;;;;16.36;88.78;94905.63;5053192;28;20280;-65
2023/05/28 04:13:28;;;;;;;6.15;5.55;;;;;;;16.31;87.78;94882.03;5056748;28;20286;-65
2023/05/28 04:15:56;;;;;;;5.18;4.88;;;;;;;16.39;88.07;94909.75;5050731;28;20281;-60
2023/05/28 04:18:23;;;;;;;5.13;4.72;;;;;;;16.44;87.79;94908.59;5051361;28;20206;-64
2023/05/28 04:20:50;;;;;;;5.82;5.45;;;;;;;16.34;87.86;94913.41;5054058;28;20336;-63
2023/05/28 04:23:16;;;;;;;5.70;5.30;;;;;;;16.21;88.37;94914.22;5055689;28;20297;-65
2023/05/28 04:25:43;;;;;;;5.28;4.97;;;;;;;16.24;88.30;94914.88;5054175;28;20348;-65
2023/05/28 04:28:11;;;;;;;5.20;4.85;;;;;;;16.44;88.67;94916.28;5054323;28;20206;-65
2023/05/28 04:30:37;;;;;;;5.63;5.32;;;;;;;16.39;88.16;94917.44;5052497;28;20279;-64
2023/05/28 04:33:06;;;;;;;5.47;5.07;;;;;;;16.38;87.65;94913.25;5054679;28;20307;-62
2023/05/28 04:35:32;;;;;;;6.13;5.45;;;;;;;16.39;88.18;94920.84;5054200;28;20226;-66
2023/05/28 04:38:00;;;;;;;6.43;5.20;;;;;;;16.39;88.26;94912.31;5050279;28;20305;-66
2023/05/28 04:40:27;;;;;;;10.23;5.40;;;;;;;16.40;88.62;94922.50;5053185;28;20226;-64
2023/05/28 04:42:55;;;;;;;7.95;5.30;;;;;;;16.37;88.88;94917.53;5057800;28;20210;-65
2023/05/28 04:45:22;;;;;;;10.43;5.53;;;;;;;16.39;88.51;94910.59;5058050;28;20233;-65
2023/05/28 04:47:50;;;;;;;10.10;5.68;;;;;;;16.45;88.08;94919.66;5055957;28;20209;-65
2023/05/28 04:50:18;;;;;;;6.07;5.68;;;;;;;16.52;87.41;94908.13;5058350;28;20222;-66
2023/05/28 04:52:44;;;;;;;6.03;5.43;;;;;;;16.65;86.50;94916.78;5056403;28;21152;-64
2023/05/28 04:55:12;;;;;;;8.73;6.60;;;;;;;16.76;86.11;94922.09;5056666;28;20734;-64
2023/05/28 04:57:39;;;;;;;5.65;5.25;;;;;;;16.76;86.51;94927.25;5058209;28;20201;-65
2023/05/28 05:00:12;;;;;;;6.28;5.68;;;;;;;16.82;86.34;94923.50;5058066;28;20288;-65
2023/05/28 05:02:39;;;;;;;6.55;5.95;;;;;;;16.82;86.39;94924.31;5057731;28;20210;-67
2023/05/28 05:05:07;;;;;;;6.57;5.97;;;;;;;16.90;86.53;94923.81;5058501;28;20210;-68
2023/05/28 05:07:35;;;;;;;7.20;6.53;;;;;;;17.03;85.97;94916.22;5053500;28;21059;-64
2023/05/28 05:10:02;;;;;;;6.63;6.13;;;;;;;17.01;86.27;94924.03;5057710;28;20281;-67
2023/05/28 05:12:29;;;;;;;7.45;6.75;;;;;;;17.02;86.80;94917.97;5055385;28;20225;-63
2023/05/28 05:14:55;;;;;;;7.70;7.00;;;;;;;17.02;86.94;94919.72;5058776;28;20304;-61
2023/05/28 05:17:22;;;;;;;7.55;6.80;;;;;;;16.98;87.55;94922.47;5056381;28;20259;-63
2023/05/28 05:19:49;;;;;;;8.93;6.88;;;;;;;17.02;87.27;94919.72;5058673;28;20305;-64
2023/05/28 05:22:15;;;;;;;7.10;6.50;;;;;;;17.08;86.74;94919.31;5054710;28;20348;-67
2023/05/28 05:24:43;;;;;;;7.28;6.20;;;;;;;17.09;85.90;94915.81;5053574;28;20216;-66
2023/05/28 05:27:10;;;;;;;8.07;7.10;;;;;;;17.12;85.99;94916.47;5057610;28;20696;-66
2023/05/28 05:29:37;;;;;;;7.93;7.25;;;;;;;17.22;85.71;94912.44;5056662;28;20700;-66
2023/05/28 05:32:04;;;;;;;7.53;6.70;;;;;;;17.54;83.80;94907.03;5054578;28;20656;-65
2023/05/28 05:34:30;;;;;;;7.57;6.97;;;;;;;18.02;82.07;94908.22;5057560;28;20291;-64
2023/05/28 05:36:58;;;;;;;9.25;6.90;;;;;;;18.60;80.33;94909.53;5054720;28;20707;-65
2023/05/28 05:39:25;;;;;;;7.88;7.28;;;;;;;19.00;78.45;94911.06;5054163;28;20201;-67
2023/05/28 05:41:53;;;;;;;7.82;7.22;;;;;;;19.06;77.02;94916.69;5056190;28;20221;-66
2023/05/28 05:44:20;;;;;;;7.15;6.65;;;;;;;18.80;77.24;94909.03;5054753;28;20226;-65
2023/05/28 05:46:47;;;;;;;8.20;7.60;;;;;;;18.70;77.78;94926.03;5056008;28;20771;-63
2023/05/28 05:49:14;;;;;;;8.13;7.43;;;;;;;18.57;77.49;94917.44;5056957;28;20305;-66
2023/05/28 05:51:41;;;;;;;8.15;7.07;;;;;;;18.25;79.14;94915.25;5055001;28;20214;-66
2023/05/28 05:54:08;;;;;;;29.02;9.43;;;;;;;18.17;79.70;94917.50;5055572;28;20292;-65
2023/05/28 05:56:34;;;;;;;8.10;7.30;;;;;;;18.14;80.14;94916.88;5055314;28;20337;-62
2023/05/28 05:59:02;;;;;;;8.55;6.85;;;;;;;18.10;80.32;94918.00;5053129;28;20210;-63
2023/05/28 06:01:29;;;;;;;8.00;6.68;;;;;;;17.96;81.15;94918.91;5057488;28;20313;-67
2023/05/28 06:03:56;;;;;;;9.60;7.78;;;;;;;17.94;81.46;94910.47;5055355;28;20293;-67
2023/05/28 06:06:23;;;;;;;7.95;7.00;;;;;;;17.89;82.06;94921.03;5055695;28;20745;-62
2023/05/28 06:08:50;;;;;;;7.55;6.85;;;;;;;17.84;82.97;94924.81;5054890;28;20815;-67
2023/05/28 06:11:16;;;;;;;7.43;6.70;;;;;;;17.90;82.92;94924.44;5055021;28;20289;-64
2023/05/28 06:13:43;;;;;;;7.18;6.35;;;;;;;17.92;83.16;94925.16;5055615;28;20297;-65
2023/05/28 06:16:12;;;;;;;8.10;7.43;;;;;;;18.14;81.78;94922.84;5056694;28;20217;-63
2023/05/28 06:18:39;;;;;;;7.15;6.55;;;;;;;18.20;79.11;94926.78;5056330;28;22046;-69
2023/05/28 06:21:07;;;;;;;8.95;7.07;;;;;;;18.17;79.31;94925.22;5055488;28;20688;-67
2023/05/28 06:23:34;;;;;;;8.35;7.18;;;;;;;18.28;79.09;94924.53;5057165;28;20784;-67
2023/05/28 06:26:00;;;;;;;7.68;6.88;;;;;;;18.23;79.38;94924.81;5055447;28;20222;-67
2023/05/28 06:28:27;;;;;;;7.47;6.75;;;;;;;18.19;79.88;94931.09;5056539;28;20591;-66
2023/05/28 06:30:54;;;;;;;7.88;7.18;;;;;;;18.11;80.99;94937.66;5056546;28;20687;-64
2023/05/28 06:33:22;;;;;;;7.75;7.00;;;;;;;18.06;81.88;94939.72;5057021;28;20238;-62
2023/05/28 06:35:49;;;;;;;7.43;6.82;;;;;;;18.05;82.75;94938.91;5056176;28;20275;-65
2023/05/28 06:38:15;;;;;;;7.55;6.95;;;;;;;18.05;83.93;94931.19;5056535;28;20647;-65
2023/05/28 06:40:42;;;;;;;11.63;8.18;;;;;;;18.10;84.40;94947.13;5052974;28;20812;-65
2023/05/28 06:43:09;;;;;;;8.68;7.97;;;;;;;18.19;84.48;94938.81;5059015;28;20233;-64
2023/05/28 06:45:35;;;;;;;9.05;8.45;;;;;;;18.27;84.78;94936.56;5055969;28;20286;-65
2023/05/28 06:48:03;;;;;;;8.80;8.10;;;;;;;18.29;84.54;94942.44;5052714;28;20285;-60
2023/05/28 06:50:31;;;;;;;8.95;8.18;;;;;;;18.36;84.73;94937.69;5051672;28;20226;-63
2023/05/28 06:52:57;;;;;;;8.15;7.55;;;;;;;18.43;84.96;94940.69;5056106;28;20676;-64
2023/05/28 06:55:24;;;;;;;10.35;9.35;;;;;;;18.55;85.08;94938.16;5055036;28;20254;-64
2023/05/28 06:57:51;;;;;;;9.80;8.00;;;;;;;18.66;84.85;94940.00;5056424;28;20194;-64
2023/05/28 07:00:18;;;;;;;8.90;8.20;;;;;;;18.74;84.06;94948.06;5053320;28;20248;-61
2023/05/28 07:02:46;;;;;;;9.70;8.75;;;;;;;18.82;83.78;94944.94;5051710;28;20258;-63
2023/05/28 07:05:13;;;;;;;10.95;8.50;;;;;;;18.74;83.75;94947.22;5053259;28;20212;-64
2023/05/28 07:07:41;;;;;;;9.30;8.50;;;;;;;18.75;83.03;94944.56;5054487;28;20240;-65
2023/05/28 07:10:08;;;;;;;9.43;8.20;;;;;;;18.98;81.95;94945.56;5053893;28;20356;-63
2023/05/28 07:12:35;;;;;;;9.30;8.48;;;;;;;19.41;82.08;94943.41;5054585;28;20245;-65
2023/05/28 07:15:02;;;;;;;11.43;7.78;;;;;;;19.93;80.29;94939.75;5057883;28;20230;-65
2023/05/28 07:17:29;;;;;;;8.40;7.70;;;;;;;20.90;76.81;94935.09;5056988;28;20209;-63
2023/05/28 07:19:55;;;;;;;7.40;6.85;;;;;;;22.74;68.66;94940.25;5056944;28;20710;-66
2023/05/28 07:22:23;;;;;;;7.72;7.13;;;;;;;23.48;65.11;94937.44;5054032;28;21326;-64
2023/05/28 07:24:51;;;;;;;7.32;6.68;;;;;;;23.56;63.73;94922.06;5053030;28;20207;-65
2023/05/28 07:27:18;;;;;;;9.70;7.70;;;;;;;23.69;63.22;94931.25;5052859;28;20292;-62
2023/05/28 07:29:45;;;;;;;7.10;6.50;;;;;;;24.25;60.85;94924.63;5052228;28;20329;-62
2023/05/28 07:32:11;;;;;;;6.65;6.22;;;;;;;24.41;61.19;94924.88;5052726;28;20198;-62
2023/05/28 07:34:39;;;;;;;6.40;5.82;;;;;;;24.74;59.77;94928.78;5052629;28;20778;-64
2023/05/28 07:37:06;;;;;;;5.82;5.43;;;;;;;24.78;57.78;94927.53;5053495;28;20206;-64
2023/05/28 07:39:32;;;;;;;4.82;4.47;;;;;;;24.51;58.99;94930.03;5053854;28;20252;-65
2023/05/28 07:42:00;;;;;;;11.23;9.68;;;;;;;24.05;58.53;94924.56;5054630;28;20374;-65
2023/05/28 07:44:27;;;;;;;3.35;3.13;;;;;;;23.17;59.64;94923.69;5052109;28;20697;-65
2023/05/28 07:46:54;;;;;;;4.50;4.10;;;;;;;22.25;62.20;94921.00;5053006;28;21086;-65
2023/05/28 07:49:21;;;;;;;4.32;3.95;;;;;;;21.55;66.02;94918.00;5055930;28;20233;-66
2023/05/28 07:51:48;;;;;;;4.65;4.35;;;;;;;21.21;67.11;94919.84;5053226;28;20747;-64
2023/05/28 07:54:15;;;;;;;4.43;3.25;;;;;;;20.74;68.77;94921.69;5051666;28;20633;-65
2023/05/28 07:56:41;;;;;;;4.78;4.30;;;;;;;20.29;70.67;94918.19;5051933;28;20285;-67
2023/05/28 07:59:11;;;;;;;3.05;2.83;;;;;;;19.95;70.93;94919.81;5054275;28;20366;-65
2023/05/28 08:01:37;;;;;;;3.03;2.83;;;;;;;19.64;72.26;94922.03;5055410;28;20287;-62
2023/05/28 08:04:04;;;;;;;4.03;3.70;;;;;;;19.67;73.13;94918.41;5052615;28;20206;-62
2023/05/28 08:06:31;;;;;;;3.92;3.63;;;;;;;19.73;72.49;94917.97;5056650;28;20291;-63
2023/05/28 08:08:58;;;;;;;2.97;2.78;;;;;;;19.81;71.89;94917.41;5053840;28;20252;-64
2023/05/28 08:11:25;;;;;;;3.65;3.38;;;;;;;20.02;72.43;94913.28;5052580;28;20198;-66
2023/05/28 08:13:52;;;;;;;3.33;3.03;;;;;;;21.56;68.95;94910.13;5052396;28;20208;-67
2023/05/28 08:16:20;;;;;;;3.35;3.15;;;;;;;23.95;61.34;94915.16;5053551;28;20604;-67
2023/05/28 08:18:47;;;;;;;3.83;3.50;;;;;;;25.21;56.05;94911.41;5054068;28;20324;-64
2023/05/28 08:21:13;;;;;;;3.40;3.20;;;;;;;25.24;54.42;94902.50;5052329;28;20326;-63
2023/05/28 08:23:40;;;;;;;3.10;2.90;;;;;;;24.23;56.90;94919.53;5052996;28;20344;-67
2023/05/28 08:26:06;;;;;;;3.83;3.53;;;;;;;23.62;59.63;94916.34;5055072;28;20303;-65
2023/05/28 08:28:33;;;;;;;4.10;3.67;;;;;;;23.34;59.81;94916.09;5052713;28;20757;-63
2023/05/28 08:31:00;;;;;;;4.00;3.72;;;;;;;23.57;59.34;94915.91;5053301;28;20293;-66
2023/05/28 08:33:28;;;;;;;4.40;4.10;;;;;;;23.64;58.93;94924.81;5051357;28;20316;-67
2023/05/28 08:35:55;;;;;;;4.97;4.50;;;;;;;23.38;59.58;94920.06;5054001;28;20209;-64
2023/05/28 08:38:21;;;;;;;11.13;10.05;;;;;;;22.99;59.25;94920.91;5053442;28;20302;-65
2023/05/28 08:40:52;;;;;;;3.20;2.90;;;;;;;22.53;60.46;94921.28;5050297;28;20301;-64
2023/05/28 08:43:19;;;;;;;3.50;3.20;;;;;;;21.94;62.62;94925.22;5054316;28;20305;-64
2023/05/28 08:45:46;;;;;;;4.78;4.38;;;;;;;21.06;64.05;94927.81;5054992;28;20238;-66
2023/05/28 08:48:15;;;;;;;4.35;4.05;;;;;;;20.61;66.95;94926.13;5053359;28;20304;-66
2023/05/28 08:50:48;;;;;;;3.00;2.80;;;;;;;20.09;68.88;94922.22;5053835;28;20313;-66
2023/05/28 08:53:18;;;;;;;3.20;3.00;;;;;;;20.33;69.48;94928.16;5051566;28;20289;-65
2023/05/28 08:55:45;;;;;;;3.20;3.00;;;;;;;21.31;66.20;94931.94;5051456;28;20293;-65
2023/05/28 08:58:12;;;;;;;5.63;3.15;;;;;;;21.36;65.27;94913.47;5054273;28;20210;-64
2023/05/28 09:00:40;;;;;;;12.63;9.63;;;;;;;21.22;66.17;94927.50;5051861;28;20297;-65
2023/05/28 09:03:07;;;;;;;4.93;4.53;;;;;;;21.19;66.29;94926.88;5053188;28;20715;-67
2023/05/28 09:05:36;;;;;;;7.60;4.05;;;;;;;21.13;66.39;94925.56;5052681;28;20218;-67
2023/05/28 09:08:07;;;;;;;5.55;5.00;;;;;;;21.01;65.69;94919.59;5051619;28;20234;-66
2023/05/28 09:10:33;;;;;;;4.45;4.13;;;;;;;20.89;66.53;94915.38;5052528;28;20699;-60
2023/05/28 09:13:01;;;;;;;6.03;5.47;;;;;;;20.80;67.31;94913.47;5053712;28;20325;-66
2023/05/28 09:15:29;;;;;;;3.40;3.15;;;;;;;21.02;66.33;94916.09;5052301;28;21915;-65
2023/05/28 09:17:58;;;;;;;4.25;2.42;;;;;;;21.20;66.63;94913.00;5052277;28;20226;-65
2023/05/28 09:20:25;;;;;;;3.40;2.63;;;;;;;21.24;64.94;94915.28;5052900;28;20321;-67
2023/05/28 09:22:59;;;;;;;3.35;3.05;;;;;;;21.30;66.02;94921.69;5050849;28;20338;-66
2023/05/28 09:25:28;;;;;;;4.30;3.85;;;;;;;21.13;65.58;94917.00;5051338;28;20216;-64
2023/05/28 09:27:55;;;;;;;5.90;2.80;;;;;;;20.95;66.39;94914.91;5053741;28;20221;-65
2023/05/28 09:30:23;;;;;;;2.90;2.70;;;;;;;21.32;66.51;94906.91;5054647;28;20297;-63
2023/05/28 09:32:58;;;;;;;4.65;3.22;;;;;;;22.56;61.59;94911.50;5056655;28;20217;-67
2023/05/28 09:35:26;;;;;;;3.38;3.17;;;;;;;22.90;59.19;94912.13;5055677;28;20750;-64
2023/05/28 09:38:00;;;;;;;3.83;3.30;;;;;;;22.39;60.18;94905.13;5052803;28;20704;-64
2023/05/28 09:40:29;;;;;;;3.50;3.25;;;;;;;21.97;62.00;94911.22;5058036;28;20217;-64
2023/05/28 09:42:55;;;;;;;5.85;3.47;;;;;;;21.16;62.64;94921.94;5057864;28;20222;-66
2023/05/28 09:45:24;;;;;;;6.32;3.47;;;;;;;20.38;65.52;94920.09;5054731;28;20305;-66
2023/05/28 09:47:50;;;;;;;4.18;3.85;;;;;;;20.05;67.34;94934.50;5055556;28;20202;-63
2023/05/28 09:50:17;;;;;;;3.60;3.35;;;;;;;20.01;67.68;94934.88;5056202;28;20321;-64
2023/05/28 09:52:45;;;;;;;4.93;3.75;;;;;;;20.32;67.35;94921.34;5055687;28;20205;-65
2023/05/28 09:55:14;;;;;;;4.80;3.20;;;;;;;20.70;66.78;94918.53;5055262;28;20206;-61
2023/05/28 09:57:47;;;;;;;3.13;2.92;;;;;;;21.31;63.99;94921.59;5054073;28;20252;-65
2023/05/28 10:00:23;;;;;;;3.50;3.20;;;;;;;21.77;63.06;94904.22;5055637;28;20208;-64
2023/05/28 10:03:00;;;;;;;3.15;2.95;;;;;;;22.09;61.58;94920.56;5054840;28;20225;-66
2023/05/28 10:05:30;;;;;;;5.40;3.15;;;;;;;22.11;61.38;94921.28;5051521;28;20759;-61
2023/05/28 10:07:59;;;;;;;7.70;3.22;;;;;;;22.50;60.38;94921.56;5052280;28;20388;-64
2023/05/28 10:10:28;;;;;;;3.10;2.83;;;;;;;22.28;59.23;94915.53;5055002;28;20201;-68
2023/05/28 10:12:57;;;;;;;5.60;5.10;;;;;;;22.25;61.17;94923.59;5056987;28;20222;-63
2023/05/28 10:15:25;;;;;;;9.10;5.63;;;;;;;21.97;61.57;94930.13;5056830;28;20750;-63
2023/05/28 10:17:53;;;;;;;5.53;5.13;;;;;;;21.59;61.96;94922.84;5055223;28;20259;-67
2023/05/28 10:20:19;;;;;;;3.92;3.65;;;;;;;21.07;63.59;94926.03;5052898;28;20202;-61
2023/05/28 10:22:47;;;;;;;3.67;3.38;;;;;;;20.66;64.78;94918.88;5051374;28;20312;-61
2023/05/28 10:25:14;;;;;;;8.85;4.30;;;;;;;20.12;67.09;94919.41;5054424;28;20206;-61
2023/05/28 10:27:45;;;;;;;3.42;3.22;;;;;;;20.12;67.05;94918.59;5054392;28;20222;-62
2023/05/28 10:30:31;;;;;;;3.78;3.47;;;;;;;20.18;66.35;94913.00;5055843;28;20296;-61
2023/05/28 10:32:58;;;;;;;3.63;3.42;;;;;;;20.13;67.51;94910.75;5053775;28;20611;-63
2023/05/28 10:35:25;;;;;;;3.50;3.30;;;;;;;19.97;67.02;94908.47;5052027;28;20293;-62
2023/05/28 10:38:02;;;;;;;6.30;5.20;;;;;;;19.70;68.34;94913.88;5052955;28;20297;-61
2023/05/28 10:40:29;;;;;;;3.92;3.63;;;;;;;19.77;68.99;94913.44;5052929;28;20301;-62
2023/05/28 10:42:56;;;;;;;3.53;3.33;;;;;;;20.17;67.79;94903.59;5052453;28;20230;-61
2023/05/28 10:45:35;;;;;;;4.55;3.75;;;;;;;20.77;64.95;94907.75;5051246;28;20297;-62
2023/05/28 10:48:03;;;;;;;4.80;4.50;;;;;;;20.83;64.12;94895.16;5051789;28;20210;-61
2023/05/28 10:50:29;;;;;;;4.15;3.95;;;;;;;21.11;63.51;94898.19;5050317;28;20632;-61
2023/05/28 10:53:18;;;;;;;4.18;3.88;;;;;;;21.08;64.39;94893.28;5054900;28;20206;-61
2023/05/28 10:55:49;;;;;;;5.60;3.53;;;;;;;20.90;64.06;94872.28;5053510;28;20287;-62
2023/05/28 10:58:24;;;;;;;4.28;3.97;;;;;;;20.50;64.84;94887.41;5054621;28;20199;-63
2023/05/28 11:00:52;;;;;;;4.05;3.75;;;;;;;20.48;65.25;94884.94;5053926;28;20212;-61
2023/05/28 11:03:41;;;;;;;4.95;4.65;;;;;;;20.65;64.37;94881.91;5053998;28;20340;-64
2023/05/28 11:06:08;;;;;;;4.88;4.47;;;;;;;20.91;63.64;94876.50;5047286;28;20209;-62
2023/05/28 11:08:40;;;;;;;8.10;5.97;;;;;;;21.33;63.02;94874.94;5053006;28;20656;-64
2023/05/28 11:11:07;;;;;;;5.35;4.63;;;;;;;21.58;61.70;94863.47;5050728;28;20304;-63
2023/05/28 11:13:34;;;;;;;5.05;4.65;;;;;;;21.97;60.20;94882.75;5052719;28;20321;-63
2023/05/28 11:16:08;;;;;;;5.00;4.70;;;;;;;21.19;61.04;94885.53;5053943;28;20293;-64
2023/05/28 11:18:35;;;;;;;5.50;5.05;;;;;;;20.78;63.27;94881.81;5053267;28;20201;-64
2023/05/28 11:21:07;;;;;;;5.63;5.20;;;;;;;20.66;63.66;94877.56;5053814;28;20297;-62
2023/05/28 11:23:34;;;;;;;5.22;4.93;;;;;;;20.74;64.71;94874.41;5054794;28;20589;-65
2023/05/28 11:26:01;;;;;;;4.82;4.53;;;;;;;21.35;63.61;94878.22;5053074;28;20305;-61
2023/05/28 11:28:27;;;;;;;6.00;5.47;;;;;;;21.75;60.82;94862.97;5052528;28;22069;-63
2023/05/28 11:30:57;;;;;;;5.00;4.70;;;;;;;21.49;61.44;94872.81;5053179;28;20241;-64
2023/05/28 11:33:27;;;;;;;5.32;5.00;;;;;;;21.19;62.45;94872.59;5051972;28;20198;-65
2023/05/28 11:35:59;;;;;;;5.63;5.15;;;;;;;20.97;63.56;94881.19;5053067;28;20214;-63